PWSweather.com
Personal Weather Stations
Station Observations
W7JKG
Phoenix, AZ 85032-2083

Phoenix, AZ 85032-2083

Lat: 33.645544, Lon: -112.007099

Elevation: 1474

Station Type: Davis Vantage Pro2 Wireless

http://tiggrweather.net/

High Low Average
Temperature 82.7°F28.2°C 66.0°F18.9°C 74.4°F23.6°C
Dew Point 56.5°F13.6°C 48.0°F8.9°C 51.8°F11.0°C
Winds 6.9 mph 11.1 kmh Calm Calm 3.0 mph S4.8 kmh S
Wind Gusts 11.5 mph18.5 kmh -- 5.0 mph8.0 kmh
Humidity 60% 33% 46%
Pressure 29.94 in1013.9 mb 29.86 in1011.2 mb -
Precipitation 0.00 in0.0 mm - -
Hour Temp Dew Point Humidity Winds Wind Gusts Pressure Precip Precip Rate Daily Precip Total
12:00 AM 67.3°F19.6°C 48.0°F8.9°C 50% Calm Calm 1.2 mph1.9 kmh 29.89 in1012.2 mb - 0.00 in0.0 mm 0.00 in0.0 mm
01:00 AM 67.4°F19.7°C 48.1°F8.9°C 50% Calm Calm -- 29.89 in1012.2 mb - 0.00 in0.0 mm 0.00 in0.0 mm
02:00 AM 68.8°F20.4°C 48.3°F9.1°C 48% 2.3 mph SE3.7 kmh SE 3.5 mph5.6 kmh 29.89 in1012.2 mb - 0.00 in0.0 mm 0.00 in0.0 mm
03:00 AM 67.4°F19.7°C 48.6°F9.2°C 51% Calm Calm -- 29.89 in1012.2 mb - 0.00 in0.0 mm 0.00 in0.0 mm
04:00 AM 66.5°F19.2°C 49.3°F9.6°C 54% Calm Calm -- 29.89 in1012.2 mb - 0.00 in0.0 mm 0.00 in0.0 mm
05:00 AM 67.2°F19.6°C 50.5°F10.3°C 55% 1.2 mph SE1.9 kmh SE 2.3 mph3.7 kmh 29.89 in1012.2 mb - 0.00 in0.0 mm 0.00 in0.0 mm
06:00 AM 66.0°F18.9°C 51.7°F10.9°C 60% Calm Calm -- 29.89 in1012.2 mb - 0.00 in0.0 mm 0.00 in0.0 mm
07:00 AM 67.4°F19.7°C 49.7°F9.8°C 53% 3.5 mph SSE5.6 kmh SSE 4.6 mph7.4 kmh 29.91 in1012.9 mb - 0.00 in0.0 mm 0.00 in0.0 mm
08:00 AM 70.2°F21.2°C 50.7°F10.4°C 50% 1.2 mph SSE1.9 kmh SSE 3.5 mph5.6 kmh 29.93 in1013.5 mb - 0.00 in0.0 mm 0.00 in0.0 mm
09:00 AM 74.0°F23.3°C 50.1°F10.1°C 43% 2.3 mph S3.7 kmh S 3.5 mph5.6 kmh 29.94 in1013.9 mb - 0.00 in0.0 mm 0.00 in0.0 mm
10:00 AM 76.0°F24.4°C 51.2°F10.7°C 42% 3.5 mph SSE5.6 kmh SSE 6.9 mph11.1 kmh 29.94 in1013.9 mb - 0.00 in0.0 mm 0.00 in0.0 mm
11:00 AM 77.1°F25.1°C 54.7°F12.6°C 46% 6.9 mph SSW11.1 kmh SSW 9.2 mph14.8 kmh 29.94 in1013.9 mb - 0.00 in0.0 mm 0.00 in0.0 mm
12:00 PM 80.6°F27.0°C 56.0°F13.3°C 43% 5.8 mph SW9.3 kmh SW 6.9 mph11.1 kmh 29.93 in1013.5 mb - 0.00 in0.0 mm 0.00 in0.0 mm
01:00 PM 82.3°F27.9°C 55.5°F13.1°C 40% 6.9 mph SSE11.1 kmh SSE 11.5 mph18.5 kmh 29.90 in1012.5 mb - 0.00 in0.0 mm 0.00 in0.0 mm
02:00 PM 81.6°F27.6°C 54.2°F12.3°C 39% 4.6 mph S7.4 kmh S 10.4 mph16.7 kmh 29.88 in1011.9 mb - 0.00 in0.0 mm 0.00 in0.0 mm
03:00 PM 82.0°F27.8°C 53.9°F12.2°C 38% 3.5 mph S5.6 kmh S 4.6 mph7.4 kmh 29.86 in1011.2 mb - 0.00 in0.0 mm 0.00 in0.0 mm
04:00 PM 82.7°F28.2°C 50.7°F10.4°C 33% 5.8 mph S9.3 kmh S 10.4 mph16.7 kmh 29.86 in1011.2 mb - 0.00 in0.0 mm 0.00 in0.0 mm
05:00 PM 81.9°F27.7°C 50.0°F10.0°C 33% 4.6 mph SW7.4 kmh SW 4.6 mph7.4 kmh 29.86 in1011.2 mb - 0.00 in0.0 mm 0.00 in0.0 mm
06:00 PM 80.5°F26.9°C 51.1°F10.6°C 36% Calm Calm 1.2 mph1.9 kmh 29.87 in1011.5 mb - 0.00 in0.0 mm 0.00 in0.0 mm
07:00 PM 77.9°F25.5°C 53.6°F12.0°C 43% 3.5 mph W5.6 kmh W 5.8 mph9.3 kmh 29.87 in1011.5 mb - 0.00 in0.0 mm 0.00 in0.0 mm
08:00 PM 76.3°F24.6°C 53.4°F11.9°C 45% 4.6 mph WSW7.4 kmh WSW 8.1 mph13.0 kmh 29.90 in1012.5 mb - 0.00 in0.0 mm 0.00 in0.0 mm
09:00 PM 75.5°F24.2°C 53.9°F12.2°C 47% 3.5 mph W5.6 kmh W 4.6 mph7.4 kmh 29.91 in1012.9 mb - 0.00 in0.0 mm 0.00 in0.0 mm
10:00 PM 74.9°F23.8°C 54.5°F12.5°C 49% 4.6 mph W7.4 kmh W 6.9 mph11.1 kmh 29.93 in1013.5 mb - 0.00 in0.0 mm 0.00 in0.0 mm
11:00 PM 74.2°F23.4°C 56.5°F13.6°C 54% 1.2 mph NE1.9 kmh NE 2.3 mph3.7 kmh 29.93 in1013.5 mb - 0.00 in0.0 mm 0.00 in0.0 mm